<?xml version="1.0" encoding="UTF-8" standalone="no" ?>
<gpx xmlns="http://www.topografix.com/GPX/1/1" xmlns:xsi="http://www.w3.org/2001/XMLSchema-instance" xsi:schemaLocation="http://www.topografix.com/GPX/1/1 http://www.topografix.com/GPX/1/1/gpx.xsd" version="1.1" creator="VisuGPX - https://www.visugpx.com">
  <metadata>
    <name>Ogeu de beaux singles</name>
    <desc><![CDATA[regroupement de différentes traces, sympa par temps plutôt assez sec]]></desc>
  </metadata>
  <trk>
    <name><![CDATA[Ogeu de beaux singles_7]]></name>
    <trkseg>
      <trkpt lat="43.12211" lon="-0.50312">
        <ele>330.83</ele>
        <time>2021-08-29T10:53:03Z</time>
      </trkpt>
      <trkpt lat="43.12213" lon="-0.50311">
        <ele>330.83</ele>
        <time>2021-08-29T10:53:04Z</time>
      </trkpt>
      <trkpt lat="43.12215" lon="-0.5031">
        <ele>330.83</ele>
        <time>2021-08-29T10:53:05Z</time>
      </trkpt>
      <trkpt lat="43.12218" lon="-0.5031">
        <ele>330.83</ele>
        <time>2021-08-29T10:53:06Z</time>
      </trkpt>
      <trkpt lat="43.1222" lon="-0.5031">
        <ele>330.83</ele>
        <time>2021-08-29T10:53:07Z</time>
      </trkpt>
      <trkpt lat="43.12223" lon="-0.50309">
        <ele>330.83</ele>
        <time>2021-08-29T10:53:08Z</time>
      </trkpt>
      <trkpt lat="43.12225" lon="-0.50307">
        <ele>330.83</ele>
        <time>2021-08-29T10:53:09Z</time>
      </trkpt>
      <trkpt lat="43.12228" lon="-0.50306">
        <ele>330.83</ele>
        <time>2021-08-29T10:53:10Z</time>
      </trkpt>
      <trkpt lat="43.1223" lon="-0.50305">
        <ele>330.83</ele>
        <time>2021-08-29T10:53:11Z</time>
      </trkpt>
      <trkpt lat="43.12266" lon="-0.50306">
        <ele>334.2</ele>
        <time>2021-08-29T10:53:26Z</time>
      </trkpt>
      <trkpt lat="43.12268" lon="-0.50305">
        <ele>334.2</ele>
        <time>2021-08-29T10:53:27Z</time>
      </trkpt>
      <trkpt lat="43.1227" lon="-0.50304">
        <ele>334.2</ele>
        <time>2021-08-29T10:53:28Z</time>
      </trkpt>
      <trkpt lat="43.1227" lon="-0.50308">
        <ele>334.68</ele>
        <time>2021-08-29T10:53:41Z</time>
      </trkpt>
      <trkpt lat="43.12266" lon="-0.50307">
        <ele>334.2</ele>
        <time>2021-08-29T10:53:42Z</time>
      </trkpt>
      <trkpt lat="43.12263" lon="-0.50306">
        <ele>334.2</ele>
        <time>2021-08-29T10:53:43Z</time>
      </trkpt>
      <trkpt lat="43.1226" lon="-0.50306">
        <ele>334.2</ele>
        <time>2021-08-29T10:53:44Z</time>
      </trkpt>
      <trkpt lat="43.12256" lon="-0.50305">
        <ele>334.2</ele>
        <time>2021-08-29T10:53:45Z</time>
      </trkpt>
      <trkpt lat="43.12245" lon="-0.50305">
        <ele>333.23</ele>
        <time>2021-08-29T10:53:48Z</time>
      </trkpt>
      <trkpt lat="43.12204" lon="-0.5031">
        <ele>330.35</ele>
        <time>2021-08-29T10:53:55Z</time>
      </trkpt>
    </trkseg>
  </trk>
</gpx>